ELLXLFLB

Guest
Details From ELLX - Luxembourg
To LFLB - Aix-Les-Bains
Flight Number -
Tags decoded
Created
Modified
Stats Distance 240 nm / 445 km
Max Altitude 0 ft / 0 m
Waypoints 4
Social Downloads 0
Likes 0
Share VATSIM

Download

Looking for another format? Having issues loading an existing format? Contact us
Advertisement - Login to hide

Notes

Requested: ELLX DANAR LFHN LFLB

Route

ELLX DANAR LFHN LFLB

ID Type Via Altitude Latitude Longitude Leg Dist Tot Dist Heading (true) Name
O ELLX APT - 0 ft / 0 m 49.62660˚ 6.21151˚ - 0 nm - Luxembourg
DANAR FIX - 0 ft / 0 m 48.06778˚ 6.05361˚ 93 nm 93 nm 184° / 184° -
LFHN APT - 0 ft / 0 m 46.12331˚ 5.80499˚ 117 nm 211 nm 185° / 185° Vouvray
O LFLB APT - 0 ft / 0 m 45.63623˚ 5.88090˚ 29 nm 240 nm 174° / 174° Aix-Les-Bains

Altitude Profile

Advertisement - Login to hide

Weather


0- 5 10 15 20 25 30 35+ Temperature / ° C

Clouds and Precipitation
Forecast for 2017-12-16 06:00 UTC. Updated 29 minutes ago

Ground ~20,000 ft ~40,000 ft Winds

ELLX

Details ICAO ELLX (LUX)
Name Luxembourg
Region Luxembourg
Timezone Europe/Luxembourg (UTC+1.0)
Stats Elevation 1,158 ft / 353 m (AMSL)
Location 49.626599° 6.211506°
Runways 1
Magnetic Variation 1.690° E

METAR

ELLX 160520Z 32008G18KT 300V360 9999 BKN034 00/M00 Q1006 NOSIG

Decode

TAF

TAF ELLX 152300Z 1600/1706 34009KT 7000 SCT004 BKN012 TEMPO 1601/1608 2000 BR BKN002 PROB40 TEMPO 1603/1608 0300 FZFG BKN001 BECMG 1608/1611 9999 BKN015 PROB40 TEMPO 1608/1620 4000 -SHRASN BKN008 BECMG 1620/1623 24008KT TEMPO 1623/1706 2000 BR BKN003

Decode

Departure Runways

ID Width Length Bearing (true) Bearing (mag) Surface Threshold Offset Overrun Length
06 197 ft / 60 m 13,135 ft / 4,004 m 60.14° 58.45° Asphalt 0 ft / 0 m 0 ft / 0 m
24 197 ft / 60 m 13,135 ft / 4,004 m 240.18° 238.49° Asphalt 0 ft / 0 m 180 ft / 55 m

LFLB

Details ICAO LFLB (CMF)
Name Aix-Les-Bains
Region France
Timezone Europe/Paris (UTC+1.0)
Stats Elevation 779 ft / 237 m (AMSL)
Location 45.636234° 5.880898°
Runways 2
Magnetic Variation 1.690° E

METAR

LFLB 160530Z AUTO VRB03KT 9999 -RA SCT012 BKN020 BKN028 02/01 Q1009 TEMPO 2000 -SN BKN005

Decode

TAF

Not found

Destination Runways

ID Width Length Bearing (true) Bearing (mag) Surface Threshold Offset Overrun Length
18 148 ft / 45 m 5,452 ft / 1,662 m 176.72° 175.03° Asphalt 26 ft / 8 m 774 ft / 236 m
18L 197 ft / 60 m 2,309 ft / 704 m 176.70° 175.01° Grass 0 ft / 0 m 0 ft / 0 m
36 148 ft / 45 m 5,452 ft / 1,662 m 356.72° 355.03° Asphalt 23 ft / 7 m 456 ft / 139 m
36R 197 ft / 60 m 2,309 ft / 704 m 356.70° 355.01° Grass 315 ft / 96 m 0 ft / 0 m

Approach Navaids

Runway Type Ident Frequency Range Bearing (true) Bearing (mag) Slope Elevation
18 Localiser CY 109.50 MHz 27 nm / 50 km 176.73° 175.04° - 779 ft / 237 m (AMSL)
18 Glidescope CY 109.50 MHz 27 nm / 50 km 176.73° 175.04° 4.46° 779 ft / 237 m (AMSL)
18 DME CY 109.50 MHz 27 nm / 50 km - - - 779 ft / 237 m (AMSL)

Popular Alternatives